createdAt,value
2023-04-22T00:00:48.256Z,6.45
2023-04-22T00:03:15.076Z,6.20
2023-04-22T00:05:45.175Z,6.35
2023-04-22T00:09:01.611Z,6.90
2023-04-22T00:11:59.238Z,6.32
2023-04-22T00:14:25.873Z,6.37
2023-04-22T00:16:52.519Z,5.90
2023-04-22T00:19:19.125Z,5.72
2023-04-22T00:21:45.671Z,6.70
2023-04-22T00:24:12.446Z,5.85
2023-04-22T00:26:39.039Z,6.20
2023-04-22T00:29:05.640Z,6.32
2023-04-22T00:31:32.385Z,6.03
2023-04-22T00:33:59.372Z,6.62
2023-04-22T00:36:26.238Z,6.47
2023-04-22T00:38:52.819Z,6.65
2023-04-22T00:41:20.177Z,6.10
2023-04-22T00:44:27.792Z,7.03
2023-04-22T00:47:15.011Z,6.80
2023-04-22T00:49:42.147Z,6.65
2023-04-22T00:52:08.685Z,6.78
2023-04-22T00:54:36.670Z,7.10
2023-04-22T00:57:05.335Z,7.05
2023-04-22T00:59:32.099Z,7.72
2023-04-22T01:02:17.383Z,7.05
2023-04-22T01:04:44.104Z,7.90
2023-04-22T01:07:10.700Z,7.28
2023-04-22T01:09:40.104Z,8.55
2023-04-22T01:12:38.080Z,8.05
2023-04-22T01:15:32.884Z,7.50
2023-04-22T01:18:17.799Z,7.68
2023-04-22T01:20:45.474Z,7.12
2023-04-22T01:23:24.763Z,7.80
2023-04-22T01:25:51.605Z,7.75
2023-04-22T01:28:18.407Z,7.62
2023-04-22T01:30:45.355Z,7.00
2023-04-22T01:33:12.404Z,7.55
2023-04-22T01:35:40.130Z,7.68
2023-04-22T01:38:09.296Z,7.35
2023-04-22T01:40:35.884Z,7.93
2023-04-22T01:43:40.594Z,6.85
2023-04-22T01:46:27.271Z,6.15
2023-04-22T01:48:54.011Z,6.68
2023-04-22T01:51:21.017Z,6.93
2023-04-22T01:53:49.062Z,6.30
2023-04-22T01:56:16.610Z,6.80
2023-04-22T01:58:43.373Z,6.40
2023-04-22T02:01:28.915Z,6.43
2023-04-22T02:03:58.208Z,6.60
2023-04-22T02:06:24.847Z,6.15
2023-04-22T02:08:51.431Z,6.28
2023-04-22T02:15:29.488Z,6.87
2023-04-22T02:17:56.100Z,6.65
2023-04-22T02:20:22.700Z,6.03
2023-04-22T02:22:50.835Z,6.20
2023-04-22T02:25:17.889Z,6.05
2023-04-22T02:27:44.516Z,6.37
2023-04-22T02:33:06.678Z,5.75
2023-04-22T02:35:33.489Z,5.93
2023-04-22T02:38:00.188Z,5.87
2023-04-22T02:40:26.827Z,5.60
2023-04-22T02:42:53.438Z,5.75
2023-04-22T02:45:20.711Z,6.12
2023-04-22T02:48:18.521Z,5.60
2023-04-22T02:51:00.469Z,5.60
2023-04-22T02:53:27.013Z,5.93
2023-04-22T02:55:55.777Z,5.80
2023-04-22T02:58:22.518Z,5.93
2023-04-22T03:00:49.464Z,5.40
2023-04-22T03:03:16.146Z,5.62
2023-04-22T03:08:18.124Z,5.30
2023-04-22T03:10:44.677Z,5.70
2023-04-22T03:13:13.623Z,5.20
2023-04-22T03:15:43.285Z,4.97
2023-04-22T03:18:09.868Z,5.07
2023-04-22T03:21:07.580Z,5.78
2023-04-22T03:24:05.978Z,5.62
2023-04-22T03:26:39.985Z,5.40
2023-04-22T03:29:06.640Z,5.40
2023-04-22T03:31:33.251Z,5.35
2023-04-22T03:33:59.836Z,5.22
2023-04-22T03:36:27.443Z,5.53
2023-04-22T03:38:54.015Z,5.07
2023-04-22T03:41:39.012Z,7.32
2023-04-22T03:44:05.749Z,5.37
2023-04-22T03:46:32.490Z,5.50
2023-04-22T03:48:59.209Z,5.57
2023-04-22T03:51:50.459Z,5.65
2023-04-22T03:54:38.836Z,5.72
2023-04-22T03:57:05.533Z,5.57
2023-04-22T03:59:32.129Z,5.82
2023-04-22T04:01:59.255Z,5.60
2023-04-22T04:04:26.729Z,5.47
2023-04-22T04:06:54.085Z,5.35
2023-04-22T04:12:16.156Z,6.47
2023-04-22T04:14:42.797Z,5.87
2023-04-22T04:17:09.794Z,6.30
2023-04-22T04:19:55.480Z,5.82
2023-04-22T04:22:46.439Z,5.93
2023-04-22T04:25:25.322Z,5.65
2023-04-22T04:27:53.076Z,5.75
2023-04-22T04:30:21.490Z,5.70
2023-04-22T04:32:48.232Z,5.35
2023-04-22T04:35:14.839Z,5.50
2023-04-22T04:37:44.473Z,5.37
2023-04-22T04:40:12.411Z,5.57
2023-04-22T04:42:39.176Z,5.22
2023-04-22T04:45:06.267Z,5.18
2023-04-22T04:47:34.099Z,5.45
2023-04-22T04:50:35.304Z,5.80
2023-04-22T04:53:36.464Z,5.60
2023-04-22T04:56:03.888Z,4.62
2023-04-22T04:58:30.485Z,4.57
2023-04-22T05:00:57.067Z,4.87
2023-04-22T05:03:23.703Z,5.45
2023-04-22T05:05:50.671Z,5.05
2023-04-22T05:08:17.342Z,4.97
2023-04-22T05:10:45.065Z,4.72
2023-04-22T05:13:11.725Z,4.50
2023-04-22T05:15:38.374Z,4.60
2023-04-22T05:18:06.197Z,4.43
2023-04-22T05:20:35.329Z,4.53
2023-04-22T05:23:02.691Z,4.30
2023-04-22T05:25:29.502Z,4.28
2023-04-22T05:27:56.102Z,5.05
2023-04-22T05:30:22.688Z,4.80
2023-04-22T05:32:49.292Z,4.90
2023-04-22T05:35:16.076Z,5.15
2023-04-22T05:37:42.646Z,4.57
2023-04-22T05:46:08.313Z,3.92
2023-04-22T05:48:35.048Z,4.10
2023-04-22T05:51:01.659Z,4.15
2023-04-22T05:53:48.445Z,4.12
2023-04-22T06:00:05.434Z,4.20
2023-04-22T06:02:32.064Z,4.50
2023-04-22T06:04:59.001Z,4.57
2023-04-22T06:07:25.944Z,4.00
2023-04-22T06:12:39.638Z,4.12
2023-04-22T06:15:08.671Z,4.35
2023-04-22T06:17:35.341Z,3.95
2023-04-22T06:20:01.926Z,3.97
2023-04-22T06:22:28.494Z,3.53
2023-04-22T06:24:55.120Z,4.25
2023-04-22T06:27:21.702Z,3.80
2023-04-22T06:29:48.320Z,4.57
2023-04-22T06:32:14.890Z,3.78
2023-04-22T06:34:41.698Z,3.67
2023-04-22T06:37:08.704Z,3.85
2023-04-22T06:39:35.329Z,3.85
2023-04-22T06:42:02.226Z,3.22
2023-04-22T06:44:29.182Z,3.83
2023-04-22T06:46:57.883Z,3.85
2023-04-22T06:49:24.971Z,3.75
2023-04-22T06:51:51.585Z,3.85
2023-04-22T06:54:18.178Z,3.40
2023-04-22T06:56:44.874Z,4.18
2023-04-22T06:59:11.559Z,3.90
2023-04-22T07:01:38.201Z,3.65
2023-04-22T07:04:04.913Z,3.80
2023-04-22T07:06:31.569Z,3.37
2023-04-22T07:08:58.817Z,3.78
2023-04-22T07:11:26.377Z,3.62
2023-04-22T07:13:52.925Z,4.10
2023-04-22T07:16:19.564Z,4.22
2023-04-22T07:18:46.159Z,3.70
2023-04-22T07:21:12.735Z,3.53
2023-04-22T07:23:39.385Z,3.08
2023-04-22T07:26:06.501Z,3.08
2023-04-22T07:28:33.120Z,3.60
2023-04-22T07:30:59.711Z,3.55
2023-04-22T07:33:26.323Z,4.30
2023-04-22T07:35:52.861Z,3.97
2023-04-22T07:38:19.484Z,4.28
2023-04-22T07:40:46.117Z,4.87
2023-04-22T07:43:12.855Z,4.20
2023-04-22T07:45:39.617Z,4.15
2023-04-22T07:48:06.363Z,4.55
2023-04-22T07:50:32.909Z,4.25
2023-04-22T07:52:59.576Z,3.78
2023-04-22T07:55:26.196Z,4.37
2023-04-22T07:57:52.773Z,4.68
2023-04-22T08:00:19.342Z,4.00
2023-04-22T08:02:47.500Z,4.82
2023-04-22T08:05:14.346Z,4.70
2023-04-22T08:07:41.076Z,5.10
2023-04-22T08:10:08.178Z,4.43
2023-04-22T08:12:35.338Z,5.20
2023-04-22T08:15:02.004Z,4.75
2023-04-22T08:17:29.052Z,5.35
2023-04-22T08:19:55.757Z,5.45
2023-04-22T08:22:23.963Z,4.85
2023-04-22T08:24:50.510Z,4.90
2023-04-22T08:27:19.441Z,4.95
2023-04-22T08:29:46.103Z,4.43
2023-04-22T08:32:12.745Z,4.75
2023-04-22T08:34:39.421Z,4.72
2023-04-22T08:37:06.268Z,6.18
2023-04-22T08:39:32.910Z,4.93
2023-04-22T08:42:02.332Z,4.47
2023-04-22T08:44:29.897Z,4.72
2023-04-22T08:46:57.391Z,4.03
2023-04-22T08:49:25.586Z,4.22
2023-04-22T08:51:53.728Z,3.78
2023-04-22T08:54:20.311Z,4.05
2023-04-22T08:56:50.719Z,4.07
2023-04-22T08:59:19.190Z,4.68
2023-04-22T09:01:50.084Z,4.72
2023-04-22T09:04:18.903Z,4.22
2023-04-22T09:06:46.033Z,4.43
2023-04-22T09:09:12.610Z,4.22
2023-04-22T09:11:39.796Z,4.07
2023-04-22T09:14:06.725Z,4.20
2023-04-22T09:16:44.847Z,4.28
2023-04-22T09:19:13.188Z,4.20
2023-04-22T09:21:41.389Z,4.03
2023-04-22T09:24:09.514Z,4.30
2023-04-22T09:26:40.422Z,4.55
2023-04-22T09:29:09.453Z,4.50
2023-04-22T09:31:40.838Z,4.47
2023-04-22T09:34:08.363Z,4.60
2023-04-22T09:36:37.471Z,4.37
2023-04-22T09:39:07.414Z,4.07
2023-04-22T09:41:38.833Z,3.75
2023-04-22T09:44:14.954Z,4.40
2023-04-22T09:46:44.922Z,3.70
2023-04-22T09:49:12.220Z,4.37
2023-04-22T09:51:44.431Z,4.12
2023-04-22T09:54:11.636Z,4.10
2023-04-22T09:56:53.881Z,4.12
2023-04-22T09:59:30.497Z,4.03
2023-04-22T10:02:00.682Z,46.33
2023-04-22T10:04:28.383Z,5.25
2023-04-22T10:06:55.826Z,4.32
2023-04-22T10:09:24.173Z,4.20
2023-04-22T10:11:58.138Z,4.30
2023-04-22T10:14:26.288Z,4.60
2023-04-22T10:16:58.312Z,4.03
2023-04-22T10:19:26.798Z,4.20
2023-04-22T10:22:02.138Z,3.92
2023-04-22T10:24:34.300Z,4.12
2023-04-22T10:27:05.324Z,3.90
2023-04-22T10:29:52.065Z,4.12
2023-04-22T10:32:18.767Z,4.12
2023-04-22T10:34:49.747Z,4.43
2023-04-22T10:37:20.776Z,4.20
2023-04-22T10:40:22.850Z,4.03
2023-04-22T10:43:47.477Z,3.83
2023-04-22T10:46:37.553Z,4.40
2023-04-22T10:49:12.433Z,3.92
2023-04-22T10:51:41.090Z,8.60
2023-04-22T10:54:08.456Z,20.33
2023-04-22T10:56:35.415Z,8.93
2023-04-22T10:59:16.854Z,11.65
2023-04-22T11:01:44.674Z,4.15
2023-04-22T11:07:20.338Z,4.18
2023-04-22T11:15:51.922Z,4.50
2023-04-22T11:18:21.770Z,3.65
2023-04-22T11:20:49.908Z,4.03
2023-04-22T11:23:25.375Z,4.00
2023-04-22T11:26:01.230Z,3.97
2023-04-22T11:28:28.278Z,3.75
2023-04-22T11:33:43.809Z,3.80
2023-04-22T11:36:12.018Z,3.67
2023-04-22T11:38:38.588Z,3.58
2023-04-22T11:41:07.587Z,3.28
2023-04-22T11:43:34.363Z,3.67
2023-04-22T11:46:01.109Z,3.80
2023-04-22T11:48:28.103Z,3.83
2023-04-22T11:51:14.002Z,3.90
2023-04-22T11:53:50.355Z,3.25
2023-04-22T11:56:24.048Z,3.50
2023-04-22T11:58:50.636Z,3.87
2023-04-22T12:01:17.926Z,4.20
2023-04-22T12:03:44.884Z,4.30
2023-04-22T12:06:12.149Z,3.80
2023-04-22T12:08:42.334Z,3.75
2023-04-22T12:11:11.238Z,3.75
2023-04-22T12:13:37.806Z,3.75
2023-04-22T12:16:06.361Z,4.30
2023-04-22T12:18:34.995Z,3.75
2023-04-22T12:21:04.331Z,3.62
2023-04-22T12:23:40.926Z,3.92
2023-04-22T12:26:07.922Z,3.92
2023-04-22T12:28:34.533Z,4.10
2023-04-22T12:31:01.533Z,3.95
2023-04-22T12:33:28.214Z,3.97
2023-04-22T12:35:54.832Z,3.80
2023-04-22T12:38:21.473Z,3.80
2023-04-22T12:40:48.140Z,3.60
2023-04-22T12:43:14.740Z,4.68
2023-04-22T12:45:41.332Z,4.12
2023-04-22T12:48:07.935Z,4.03
2023-04-22T12:50:36.408Z,3.85
2023-04-22T12:53:02.996Z,3.80
2023-04-22T12:55:30.436Z,4.85
2023-04-22T12:57:57.236Z,3.97
2023-04-22T13:00:24.450Z,3.97
2023-04-22T13:02:51.224Z,3.62
2023-04-22T13:05:19.285Z,4.03
2023-04-22T13:07:53.250Z,4.62
2023-04-22T13:10:28.271Z,4.18
2023-04-22T13:13:00.488Z,4.28
2023-04-22T13:15:33.072Z,4.07
2023-04-22T13:17:59.762Z,4.00
2023-04-22T13:20:26.399Z,3.97
2023-04-22T13:22:53.704Z,4.05
2023-04-22T13:25:20.527Z,4.15
2023-04-22T13:27:47.164Z,3.80
2023-04-22T13:30:14.296Z,4.20
2023-04-22T13:32:40.944Z,4.18
2023-04-22T13:35:10.957Z,4.32
2023-04-22T13:37:37.539Z,5.93
2023-04-22T13:40:06.033Z,4.50
2023-04-22T13:42:32.728Z,4.15
2023-04-22T13:44:59.282Z,4.47
2023-04-22T13:47:25.892Z,3.97
2023-04-22T13:49:52.581Z,3.65
2023-04-22T13:52:19.160Z,3.87
2023-04-22T13:54:46.097Z,3.42
2023-04-22T13:57:12.678Z,3.70
2023-04-22T13:59:41.733Z,3.78
2023-04-22T14:02:08.779Z,3.85
2023-04-22T14:04:35.476Z,3.53
2023-04-22T14:07:02.104Z,3.85
2023-04-22T14:09:28.724Z,4.62
2023-04-22T14:11:55.430Z,3.65
2023-04-22T14:14:22.094Z,3.87
2023-04-22T14:16:48.829Z,3.62
2023-04-22T14:19:15.605Z,3.67
2023-04-22T14:21:42.215Z,3.92
2023-04-22T14:24:08.813Z,3.80
2023-04-22T14:26:35.477Z,3.62
2023-04-22T14:29:02.151Z,3.78
2023-04-22T14:31:28.786Z,3.75
2023-04-22T14:33:55.712Z,4.18
2023-04-22T14:36:22.301Z,3.58
2023-04-22T14:38:48.876Z,4.03
2023-04-22T14:41:15.792Z,3.87
2023-04-22T14:43:42.578Z,3.85
2023-04-22T14:46:09.138Z,4.15
2023-04-22T14:48:36.007Z,3.75
2023-04-22T14:51:05.889Z,3.45
2023-04-22T14:53:33.607Z,3.40
2023-04-22T14:56:00.600Z,3.00
2023-04-22T14:58:31.222Z,3.30
2023-04-22T15:00:59.783Z,3.47
2023-04-22T15:03:26.956Z,3.22
2023-04-22T15:05:55.122Z,3.00
2023-04-22T15:08:22.266Z,3.30
2023-04-22T15:10:48.875Z,3.72
2023-04-22T15:13:15.537Z,3.40
2023-04-22T15:15:42.266Z,3.45
2023-04-22T15:18:09.002Z,3.78
2023-04-22T15:20:35.914Z,3.65
2023-04-22T15:23:03.611Z,3.25
2023-04-22T15:25:30.613Z,3.60
2023-04-22T15:27:57.299Z,3.47
2023-04-22T15:30:24.234Z,3.22
2023-04-22T15:32:50.876Z,3.10
2023-04-22T15:35:17.931Z,3.28
2023-04-22T15:37:46.089Z,3.70
2023-04-22T15:40:12.931Z,3.42
2023-04-22T15:42:39.689Z,3.67
2023-04-22T15:45:07.055Z,3.55
2023-04-22T15:47:34.736Z,3.47
2023-04-22T15:50:08.768Z,3.70
2023-04-22T15:52:37.514Z,3.10
2023-04-22T15:55:05.389Z,3.65
2023-04-22T15:57:34.761Z,3.60
2023-04-22T16:00:14.031Z,3.30
2023-04-22T16:02:42.297Z,3.17
2023-04-22T16:05:09.663Z,3.40
2023-04-22T16:07:45.323Z,3.85
2023-04-22T16:10:12.132Z,3.80
2023-04-22T16:12:38.718Z,4.00
2023-04-22T16:15:06.930Z,3.75
2023-04-22T16:17:33.596Z,3.80
2023-04-22T16:20:00.522Z,3.70
2023-04-22T16:22:27.125Z,3.80
2023-04-22T16:24:53.682Z,3.70
2023-04-22T16:27:20.236Z,3.92
2023-04-22T16:29:46.949Z,3.70
2023-04-22T16:32:13.709Z,4.18
2023-04-22T16:34:40.342Z,4.60
2023-04-22T16:37:06.980Z,3.75
2023-04-22T16:39:33.909Z,3.80
2023-04-22T16:42:02.334Z,3.70
2023-04-22T16:44:28.942Z,4.10
2023-04-22T16:46:55.508Z,4.32
2023-04-22T16:49:22.117Z,3.90
2023-04-22T16:51:48.814Z,4.00
2023-04-22T16:54:15.574Z,4.07
2023-04-22T16:56:42.120Z,4.97
2023-04-22T16:59:08.686Z,5.60
2023-04-22T17:01:35.337Z,4.10
2023-04-22T17:04:34.548Z,4.05
2023-04-22T17:07:01.281Z,4.22
2023-04-22T17:09:27.933Z,4.00
2023-04-22T17:11:55.900Z,3.95
2023-04-22T17:14:22.660Z,4.18
2023-04-22T17:16:49.219Z,3.90
2023-04-22T17:19:15.852Z,4.07
2023-04-22T17:21:42.753Z,4.40
2023-04-22T17:24:09.372Z,4.60
2023-04-22T17:26:37.115Z,4.50
2023-04-22T17:29:06.512Z,4.60
2023-04-22T17:31:34.205Z,4.68
2023-04-22T17:34:00.920Z,4.97
2023-04-22T17:36:27.735Z,5.00
2023-04-22T17:38:54.276Z,4.57
2023-04-22T17:41:21.759Z,4.72
2023-04-22T17:43:48.317Z,4.50
2023-04-22T17:46:15.242Z,5.45
2023-04-22T17:48:42.443Z,5.03
2023-04-22T17:51:09.981Z,5.00
2023-04-22T17:53:37.521Z,5.15
2023-04-22T17:56:04.124Z,5.37
2023-04-22T17:58:30.795Z,5.80
2023-04-22T18:00:58.630Z,5.70
2023-04-22T18:03:26.269Z,5.93
2023-04-22T18:05:53.058Z,6.28
2023-04-22T18:08:19.617Z,6.75
2023-04-22T18:10:46.235Z,7.03
2023-04-22T18:13:12.803Z,7.55
2023-04-22T18:15:39.342Z,7.20
2023-04-22T18:18:06.205Z,7.20
2023-04-22T18:20:34.010Z,7.05
2023-04-22T18:23:01.132Z,7.15
2023-04-22T18:25:28.092Z,7.53
2023-04-22T18:30:30.968Z,9.82
2023-04-22T18:33:02.539Z,11.23
2023-04-22T18:38:07.438Z,15.20
2023-04-22T18:40:34.284Z,17.15
2023-04-22T18:43:09.963Z,16.15
2023-04-22T18:46:04.723Z,15.65
2023-04-22T18:48:51.615Z,15.88
2023-04-22T18:51:18.742Z,15.05
2023-04-22T18:53:45.296Z,15.40
2023-04-22T18:56:12.162Z,14.38
2023-04-22T18:58:38.726Z,14.82
2023-04-22T19:01:06.555Z,14.32
2023-04-22T19:03:33.402Z,16.67
2023-04-22T19:06:00.093Z,16.90
2023-04-22T19:08:27.029Z,18.25
2023-04-22T19:10:54.083Z,18.73
2023-04-22T19:13:29.067Z,18.52
2023-04-22T19:15:56.134Z,22.40
2023-04-22T19:19:00.532Z,32.83
2023-04-22T19:21:53.162Z,25.40
2023-04-22T19:24:33.331Z,21.70
2023-04-22T19:27:04.531Z,21.25
2023-04-22T19:29:31.105Z,18.45
2023-04-22T19:31:58.855Z,16.73
2023-04-22T19:34:26.896Z,15.75
2023-04-22T19:36:53.989Z,14.82
2023-04-22T19:39:21.110Z,13.38
2023-04-22T19:41:47.746Z,12.80
2023-04-22T19:44:14.389Z,13.30
2023-04-22T19:46:41.448Z,12.05
2023-04-22T19:49:08.593Z,10.80
2023-04-22T19:51:35.628Z,10.35
2023-04-22T19:54:28.211Z,16.23
2023-04-22T19:57:13.723Z,12.20
2023-04-22T19:59:41.240Z,9.73
2023-04-22T20:02:09.837Z,9.57
2023-04-22T20:04:37.749Z,9.90
2023-04-22T20:07:05.710Z,8.93
2023-04-22T20:09:33.165Z,8.43
2023-04-22T20:11:59.951Z,8.63
2023-04-22T20:14:26.741Z,9.25
2023-04-22T20:16:54.438Z,9.50
2023-04-22T20:19:21.094Z,8.50
2023-04-22T20:21:49.046Z,9.75
2023-04-22T20:24:19.944Z,8.32
2023-04-22T20:26:47.842Z,7.80
2023-04-22T20:29:15.060Z,8.20
2023-04-22T20:31:42.513Z,7.68
2023-04-22T20:34:09.463Z,7.82
2023-04-22T20:36:38.979Z,7.30
2023-04-22T20:39:06.474Z,7.20
2023-04-22T20:41:39.241Z,7.47
2023-04-22T20:44:06.397Z,7.50
2023-04-22T20:46:33.522Z,6.87
2023-04-22T20:49:01.242Z,7.12
2023-04-22T20:51:31.808Z,7.32
2023-04-22T20:53:58.488Z,9.00
2023-04-22T20:56:25.533Z,7.57
2023-04-22T20:58:52.316Z,7.25
2023-04-22T21:01:19.658Z,7.55
2023-04-22T21:03:51.560Z,6.80
2023-04-22T21:06:21.638Z,6.93
2023-04-22T21:08:52.674Z,7.32
2023-04-22T21:11:19.780Z,6.20
2023-04-22T21:13:48.828Z,6.57
2023-04-22T21:16:19.333Z,6.53
2023-04-22T21:18:46.383Z,6.53
2023-04-22T21:21:16.281Z,6.87
2023-04-22T21:23:43.514Z,6.65
2023-04-22T21:26:10.717Z,6.32
2023-04-22T21:28:39.151Z,6.75
2023-04-22T21:31:06.412Z,31.30
2023-04-22T21:33:33.133Z,10.75
2023-04-22T21:35:59.935Z,8.88
2023-04-22T21:38:26.729Z,7.53
2023-04-22T21:40:53.726Z,7.15
2023-04-22T21:43:20.349Z,7.10
2023-04-22T21:45:46.995Z,6.78
2023-04-22T21:48:13.538Z,6.78
2023-04-22T21:50:40.082Z,7.18
2023-04-22T21:53:06.817Z,7.30
2023-04-22T21:55:33.434Z,6.82
2023-04-22T21:58:31.108Z,6.60
2023-04-22T22:01:26.246Z,6.55
2023-04-22T22:04:05.441Z,6.85
2023-04-22T22:06:33.237Z,6.70
2023-04-22T22:08:59.812Z,6.45
2023-04-22T22:11:30.983Z,6.32
2023-04-22T22:14:05.335Z,6.30
2023-04-22T22:16:33.269Z,5.97
2023-04-22T22:19:02.515Z,6.57
2023-04-22T22:21:29.340Z,6.35
2023-04-22T22:23:57.572Z,6.05
2023-04-22T22:26:24.514Z,6.30
2023-04-22T22:29:00.477Z,6.97
2023-04-22T22:31:27.583Z,6.43
2023-04-22T22:33:54.700Z,6.68
2023-04-22T22:36:21.330Z,6.00
2023-04-22T22:42:23.083Z,6.05
2023-04-22T22:44:49.648Z,6.47
2023-04-22T22:47:35.345Z,6.05
2023-04-22T22:50:02.457Z,6.87
2023-04-22T22:52:29.156Z,6.97
2023-04-22T22:54:55.777Z,6.85
2023-04-22T22:57:37.421Z,7.12
2023-04-22T23:00:05.936Z,6.47
2023-04-22T23:02:32.903Z,6.55
2023-04-22T23:04:59.549Z,6.03
2023-04-22T23:07:41.506Z,6.65
2023-04-22T23:10:28.134Z,6.57
2023-04-22T23:13:15.124Z,6.93
2023-04-22T23:15:42.115Z,6.93
2023-04-22T23:18:09.240Z,7.00
2023-04-22T23:20:37.173Z,7.50
2023-04-22T23:23:04.708Z,7.40
2023-04-22T23:25:31.529Z,7.60
2023-04-22T23:27:58.501Z,7.37
2023-04-22T23:30:25.279Z,7.32
2023-04-22T23:32:52.417Z,7.28
2023-04-22T23:35:20.270Z,6.60
2023-04-22T23:37:47.859Z,6.68
2023-04-22T23:40:14.475Z,7.35
2023-04-22T23:43:01.137Z,8.02
2023-04-22T23:45:27.875Z,7.93
2023-04-22T23:47:54.468Z,7.60
2023-04-22T23:50:21.181Z,8.48
2023-04-22T23:52:47.740Z,7.60
2023-04-22T23:55:15.980Z,7.47
2023-04-22T23:58:10.421Z,8.88
